createdAt,value
2019-03-17T15:49:06.849Z,96539.97
2019-03-17T15:54:08.880Z,96529.86
2019-03-17T15:59:10.776Z,96514.51
2019-03-17T16:04:12.447Z,96508.42
2019-03-17T16:09:14.018Z,96504.41
2019-03-17T16:14:15.984Z,96495.12
2019-03-17T16:19:19.513Z,96496.26
2019-03-17T16:24:23.056Z,96489.58
2019-03-17T16:29:26.194Z,96483.06
2019-03-17T16:34:27.742Z,96482.36
2019-03-17T16:39:30.500Z,96483.45
2019-03-17T16:44:34.321Z,96483.61
2019-03-17T16:49:36.202Z,96480.39
2019-03-17T16:54:39.478Z,96478.30
2019-03-17T16:59:44.865Z,96489.16
2019-03-17T17:04:46.479Z,96483.27
2019-03-17T17:09:48.913Z,96474.28
2019-03-17T17:14:53.995Z,96470.97
2019-03-17T17:19:57.003Z,96458.27
2019-03-17T17:24:58.932Z,96453.64
2019-03-17T17:30:00.814Z,96446.47
2019-03-17T17:35:06.282Z,96441.19
2019-03-17T17:40:21.336Z,96428.98
2019-03-17T17:45:24.412Z,96429.13
2019-03-17T17:50:28.736Z,96414.27
2019-03-17T17:55:30.428Z,96421.95
2019-03-17T18:00:36.550Z,96418.05
2019-03-17T18:05:38.441Z,96420.25
2019-03-17T18:10:40.049Z,96429.16
2019-03-17T18:15:41.612Z,96433.76
2019-03-17T18:20:43.206Z,96427.02
2019-03-17T18:25:44.746Z,96430.56
2019-03-17T18:30:46.347Z,96430.27
2019-03-17T18:35:47.936Z,96429.59
2019-03-17T18:40:49.482Z,96432.39
2019-03-17T18:45:51.083Z,96432.24
2019-03-17T18:50:54.207Z,96440.27
2019-03-17T18:55:57.835Z,96432.81
2019-03-17T19:01:01.506Z,96437.83
2019-03-17T19:06:04.099Z,96432.09
2019-03-17T19:11:07.761Z,96427.63
2019-03-17T19:16:11.760Z,96420.64
2019-03-17T19:21:15.542Z,96416.38
2019-03-17T19:26:17.114Z,96410.91
2019-03-17T19:31:21.765Z,96396.45
2019-03-17T19:36:23.424Z,96408.27
2019-03-17T19:41:27.756Z,96404.75
2019-03-17T19:46:29.696Z,96403.55
2019-03-17T19:51:32.538Z,96401.02
2019-03-17T19:56:37.220Z,96392.50
2019-03-17T20:01:40.728Z,96390.91
2019-03-17T20:06:43.792Z,96384.22
2019-03-17T20:11:47.261Z,96376.27
2019-03-17T20:16:50.019Z,96374.81
2019-03-17T20:21:52.528Z,96376.02
2019-03-17T20:26:56.996Z,96383.32
2019-03-17T20:31:59.813Z,96388.31
2019-03-17T20:37:03.606Z,96398.72
2019-03-17T20:42:05.277Z,96399.66
2019-03-17T20:47:08.786Z,96399.11
2019-03-17T20:52:12.114Z,96398.78
2019-03-17T20:57:13.835Z,96401.94
2019-03-17T21:02:17.294Z,96412.13
2019-03-17T21:07:21.479Z,96408.36
2019-03-17T21:12:24.227Z,96402.28
2019-03-17T21:17:27.978Z,96399.78
2019-03-17T21:22:29.553Z,96395.04
2019-03-17T21:27:32.410Z,96389.98
2019-03-17T21:32:35.611Z,96380.14
2019-03-17T21:37:38.704Z,96379.63
2019-03-17T21:42:40.650Z,96375.95
2019-03-17T21:47:42.531Z,96366.39
2019-03-17T21:52:47.101Z,96349.52
2019-03-17T21:57:50.701Z,96359.72
2019-03-17T22:02:55.139Z,96356.09
2019-03-17T22:07:57.069Z,96355.16
2019-03-17T22:12:58.632Z,96357.27
2019-03-17T22:18:00.994Z,96361.95
2019-03-17T22:23:03.720Z,96365.37
2019-03-17T22:28:08.688Z,96362.43
2019-03-17T22:33:08.877Z,96363.48
2019-03-17T22:38:12.060Z,96362.53
2019-03-17T22:43:13.715Z,96361.82
2019-03-17T22:48:15.323Z,96371.03
2019-03-17T22:53:17.057Z,96380.47
2019-03-17T22:58:18.755Z,96423.70
2019-03-17T23:03:20.352Z,96459.05
2019-03-17T23:08:21.893Z,96479.70
2019-03-17T23:13:23.619Z,96513.14
2019-03-17T23:18:25.209Z,96530.55
2019-03-17T23:23:26.750Z,96558.78
2019-03-17T23:28:28.306Z,96590.14
2019-03-17T23:33:29.859Z,96604.84
2019-03-17T23:38:31.489Z,96647.66
2019-03-17T23:43:33.101Z,96679.80
2019-03-17T23:48:34.657Z,96717.22
2019-03-17T23:53:36.279Z,96726.17
2019-03-17T23:58:37.931Z,96743.44
